Time;durP1;ratioP1;P1;durP2;ratioP2;P2;SDS_P1;SDS_P2;PMS_P1;PMS_P2;Temp;Humidity;BMP_temperature;BMP_pressure;BME280_temperature;BME280_humidity;BME280_pressure;Samples;Min_cycle;Max_cycle;Signal;HPM_P1;HPM_P2
2023/01/12 00:02:04;;;;;;;29.92;4.93;;;;;;;10.04;100.00;100892.13;5027530;28;20082;-60
2023/01/12 00:04:30;;;;;;;30.40;4.40;;;;;;;10.02;100.00;100886.03;5029285;28;20042;-62
2023/01/12 00:06:56;;;;;;;31.65;5.00;;;;;;;10.01;100.00;100875.53;5010954;28;20109;-62
2023/01/12 00:09:22;;;;;;;33.50;4.80;;;;;;;10.01;100.00;100865.88;5029690;28;20021;-59
2023/01/12 00:11:47;;;;;;;34.10;5.82;;;;;;;9.92;100.00;100850.38;5029215;28;20048;-62
2023/01/12 00:14:13;;;;;;;27.20;4.93;;;;;;;9.94;100.00;100862.56;5029515;28;20117;-63
2023/01/12 00:16:38;;;;;;;40.38;5.38;;;;;;;9.98;100.00;100853.69;5028876;28;20388;-62
2023/01/12 00:19:11;;;;;;;37.17;6.00;;;;;;;9.89;100.00;100855.72;5029306;28;20026;-62
2023/01/12 00:24:30;;;;;;;36.20;6.78;;;;;;;9.77;100.00;100857.84;5009173;28;20084;-62
2023/01/12 00:26:57;;;;;;;43.38;6.20;;;;;;;9.88;100.00;100846.13;5007296;28;20018;-61
2023/01/12 00:29:23;;;;;;;38.05;5.15;;;;;;;9.78;100.00;100835.84;5009417;28;20475;-63
2023/01/12 00:31:49;;;;;;;47.45;6.40;;;;;;;9.80;100.00;100833.19;5009705;28;20116;-61
2023/01/12 00:34:15;;;;;;;52.70;7.80;;;;;;;9.83;100.00;100831.34;5008715;28;20050;-60
2023/01/12 00:36:40;;;;;;;45.30;7.53;;;;;;;9.73;100.00;100846.53;5009152;28;20034;-61
2023/01/12 00:39:06;;;;;;;53.22;6.75;;;;;;;9.80;100.00;100839.31;5009055;28;20539;-61
2023/01/12 00:47:00;;;;;;;60.20;7.85;;;;;;;9.90;100.00;100818.00;5028163;28;20741;-63
2023/01/12 00:49:25;;;;;;;53.55;6.65;;;;;;;9.96;100.00;100825.66;5028521;28;20021;-59
2023/01/12 00:51:50;;;;;;;44.97;7.15;;;;;;;9.96;100.00;100799.34;5028176;28;20026;-62
2023/01/12 00:54:16;;;;;;;60.97;8.10;;;;;;;10.01;100.00;100797.44;5029142;28;20029;-61
2023/01/12 00:56:41;;;;;;;52.17;8.07;;;;;;;9.99;100.00;100807.13;5028102;28;20025;-59
2023/01/12 00:59:06;;;;;;;56.25;7.70;;;;;;;10.00;100.00;100801.00;5028183;28;20108;-61
2023/01/12 01:01:33;;;;;;;67.55;9.13;;;;;;;9.91;100.00;100790.75;5010657;28;20021;-58
2023/01/12 01:03:58;;;;;;;58.97;7.32;;;;;;;9.93;100.00;100779.25;5012828;28;20520;-61
2023/01/12 01:06:24;;;;;;;66.15;8.52;;;;;;;10.01;100.00;100770.25;5008402;28;20033;-60
2023/01/12 01:08:50;;;;;;;62.00;8.57;;;;;;;9.95;100.00;100776.56;5008042;28;20054;-61
2023/01/12 01:11:15;;;;;;;66.55;7.95;;;;;;;10.04;100.00;100778.91;5008110;28;20029;-60
2023/01/12 01:13:44;;;;;;;70.18;10.13;;;;;;;10.01;100.00;100781.66;5008656;28;20026;-59
2023/01/12 01:16:12;;;;;;;65.72;8.77;;;;;;;10.01;100.00;100772.88;5008024;28;20064;-60
2023/01/12 01:18:37;;;;;;;59.35;6.63;;;;;;;9.95;100.00;100761.66;5008662;28;20428;-61
2023/01/12 01:21:03;;;;;;;69.13;10.05;;;;;;;9.97;100.00;100787.91;5007965;28;20029;-59
2023/01/12 01:23:32;;;;;;;67.60;7.32;;;;;;;9.98;100.00;100768.56;5008690;28;20029;-59
2023/01/12 01:26:02;;;;;;;61.97;8.80;;;;;;;10.07;100.00;100743.72;5021411;28;20064;-59
2023/01/12 01:28:27;;;;;;;53.90;7.18;;;;;;;10.16;100.00;100753.06;5026993;28;20688;-59
2023/01/12 01:31:04;;;;;;;60.13;7.13;;;;;;;10.07;100.00;100749.84;5027411;28;20101;-60
2023/01/12 01:33:30;;;;;;;50.60;6.70;;;;;;;9.94;100.00;100745.91;5027690;28;20029;-60
2023/01/12 01:35:55;;;;;;;47.13;7.18;;;;;;;9.87;100.00;100766.28;5009810;28;20036;-58
2023/01/12 01:38:21;;;;;;;34.03;6.53;;;;;;;9.76;100.00;100764.00;5027477;28;20050;-61
2023/01/12 01:40:46;;;;;;;43.03;6.18;;;;;;;9.79;100.00;100765.69;5028419;28;20029;-61
2023/01/12 01:43:13;;;;;;;35.60;5.70;;;;;;;9.84;100.00;100740.06;5026866;28;20056;-53
2023/01/12 01:45:38;;;;;;;36.78;4.60;;;;;;;9.86;100.00;100746.16;5028274;28;20026;-60
2023/01/12 01:48:04;;;;;;;36.60;5.30;;;;;;;9.86;100.00;100741.75;5030599;28;20040;-56
2023/01/12 01:50:35;;;;;;;31.67;5.78;;;;;;;9.76;100.00;100737.69;5013660;28;20021;-61
2023/01/12 01:53:05;;;;;;;25.52;4.18;;;;;;;9.81;100.00;100740.19;5013083;28;20108;-58
2023/01/12 01:55:50;;;;;;;18.65;3.42;;;;;;;9.81;100.00;100738.41;5031534;28;20029;-59
2023/01/12 01:58:20;;;;;;;27.35;4.55;;;;;;;9.83;100.00;100714.66;5013698;28;20543;-59
2023/01/12 02:00:46;;;;;;;25.48;4.78;;;;;;;9.82;100.00;100724.31;5032300;28;20021;-60
2023/01/12 02:03:11;;;;;;;22.58;4.38;;;;;;;9.83;100.00;100717.31;5013890;28;20052;-60
2023/01/12 02:05:40;;;;;;;21.00;3.70;;;;;;;9.83;100.00;100706.78;5013914;28;20029;-60
2023/01/12 02:08:16;;;;;;;14.60;3.57;;;;;;;9.76;100.00;100702.63;5029453;28;20167;-60
2023/01/12 02:10:42;;;;;;;22.75;3.13;;;;;;;9.75;100.00;100699.13;5013364;28;20057;-59
2023/01/12 02:16:33;;;;;;;22.98;4.22;;;;;;;9.75;100.00;100693.84;5030932;28;20435;-59
2023/01/12 02:19:41;;;;;;;28.58;3.65;;;;;;;9.75;100.00;100643.03;5015037;28;20021;-59
2023/01/12 02:22:35;;;;;;;17.92;2.90;;;;;;;9.75;100.00;100669.34;5031191;28;20028;-60
2023/01/12 02:25:12;;;;;;;33.58;3.88;;;;;;;9.81;100.00;100659.44;5031089;28;20033;-60
2023/01/12 02:28:16;;;;;;;20.35;3.40;;;;;;;9.92;100.00;100629.28;5012981;28;20540;-59
2023/01/12 02:30:42;;;;;;;19.33;3.50;;;;;;;9.73;100.00;100653.59;5030077;28;20060;-59
2023/01/12 02:33:22;;;;;;;23.10;3.47;;;;;;;9.88;100.00;100651.34;5031086;28;20488;-59
2023/01/12 02:35:57;;;;;;;20.60;4.35;;;;;;;9.75;100.00;100635.13;5031331;28;20094;-60
2023/01/12 02:38:40;;;;;;;25.45;4.20;;;;;;;9.82;100.00;100645.38;5013171;28;20529;-60
2023/01/12 02:44:33;;;;;;;17.27;3.47;;;;;;;9.76;100.00;100650.88;5016423;28;20075;-60
2023/01/12 02:46:59;;;;;;;27.35;3.40;;;;;;;9.75;100.00;100635.97;4997285;28;20475;-60
2023/01/12 02:49:29;;;;;;;23.75;4.13;;;;;;;9.71;100.00;100642.25;5013495;28;20076;-59
2023/01/12 02:51:57;;;;;;;23.92;3.47;;;;;;;9.73;100.00;100608.88;5012332;28;20033;-59
2023/01/12 02:54:23;;;;;;;24.02;4.10;;;;;;;9.82;100.00;100602.44;5013565;28;20053;-60
2023/01/12 02:56:54;;;;;;;26.67;3.35;;;;;;;9.83;100.00;100577.81;5011805;28;20075;-60
2023/01/12 02:59:23;;;;;;;30.42;3.47;;;;;;;9.85;100.00;100587.38;5013483;28;20523;-60
2023/01/12 03:01:49;;;;;;;;;;;;;;;9.85;100.00;100576.00;5014044;28;20025;-61
2023/01/12 03:04:16;;;;;;;34.05;3.90;;;;;;;9.79;100.00;100569.19;5012608;28;19968;-60
2023/01/12 03:06:41;;;;;;;22.77;3.90;;;;;;;9.75;100.00;100554.41;5030574;28;20021;-61
2023/01/12 03:09:07;;;;;;;33.38;4.35;;;;;;;9.74;100.00;100536.91;5030695;28;20448;-59
2023/01/12 03:11:35;;;;;;;32.30;4.93;;;;;;;9.77;100.00;100528.03;5029501;28;20025;-59
2023/01/12 03:14:01;;;;;;;25.65;3.53;;;;;;;9.59;100.00;100533.91;5028462;28;20116;-61
2023/01/12 03:16:31;;;;;;;19.48;3.88;;;;;;;9.57;100.00;100527.00;5030123;28;20032;-59
2023/01/12 03:19:10;;;;;;;;;;;;;;;9.56;100.00;100530.50;5012574;28;20121;-63
2023/01/12 03:21:39;;;;;;;17.10;3.95;;;;;;;9.55;100.00;100519.16;5013053;28;19959;-61
2023/01/12 03:24:06;;;;;;;14.73;2.85;;;;;;;9.64;100.00;100481.13;5012642;28;20048;-61
2023/01/12 03:26:35;;;;;;;15.70;3.35;;;;;;;9.68;100.00;100473.97;5030019;28;20503;-61
2023/01/12 03:29:14;;;;;;;15.82;2.60;;;;;;;9.57;100.00;100467.34;5030466;28;20475;-59
2023/01/12 03:31:40;;;;;;;13.77;2.63;;;;;;;9.48;100.00;100444.84;5013184;28;20040;-61
2023/01/12 03:34:06;;;;;;;9.73;2.42;;;;;;;9.46;100.00;100444.03;5012296;28;20040;-62
2023/01/12 03:36:45;;;;;;;10.02;3.70;;;;;;;9.45;100.00;100441.50;5012412;28;20033;-60
2023/01/12 03:39:24;;;;;;;12.80;2.85;;;;;;;9.45;100.00;100399.41;5012269;28;20617;-61
2023/01/12 03:42:08;;;;;;;10.18;2.42;;;;;;;9.39;100.00;100400.47;5012934;28;20025;-60
2023/01/12 03:44:44;;;;;;;9.93;2.63;;;;;;;9.44;100.00;100397.69;5012703;28;20033;-64
2023/01/12 03:47:17;;;;;;;11.00;2.70;;;;;;;9.33;100.00;100391.03;5012473;28;20037;-60
2023/01/12 03:49:56;;;;;;;14.07;2.78;;;;;;;9.39;100.00;100379.44;5012344;28;20040;-58
2023/01/12 03:52:22;;;;;;;14.25;3.08;;;;;;;9.44;100.00;100381.91;5012757;28;20025;-61
2023/01/12 03:54:49;;;;;;;14.52;2.85;;;;;;;9.37;100.00;100354.09;5028995;28;20068;-61
2023/01/12 03:57:15;;;;;;;16.85;3.03;;;;;;;9.40;100.00;100359.25;5010593;28;20025;-61
2023/01/12 03:59:41;;;;;;;11.18;2.53;;;;;;;9.29;100.00;100357.88;5029658;28;20060;-61
2023/01/12 04:02:06;;;;;;;16.02;2.97;;;;;;;9.33;100.00;100343.69;5029629;28;20562;-62
2023/01/12 04:04:32;;;;;;;9.95;2.53;;;;;;;9.35;100.00;100334.00;5029754;28;20054;-59
2023/01/12 04:06:57;;;;;;;14.80;2.92;;;;;;;9.26;100.00;100336.97;5011628;28;20021;-62
2023/01/12 04:09:24;;;;;;;8.95;2.45;;;;;;;9.22;100.00;100356.41;5029024;28;20124;-63
2023/01/12 04:14:34;;;;;;;11.57;2.53;;;;;;;9.19;100.00;100344.22;5029381;28;20032;-61
2023/01/12 04:16:59;;;;;;;13.82;2.65;;;;;;;9.23;100.00;100329.19;5027349;28;20046;-60
2023/01/12 04:19:24;;;;;;;8.57;2.00;;;;;;;9.20;100.00;100313.53;5019026;28;20050;-61
2023/01/12 04:24:33;;;;;;;10.07;2.03;;;;;;;9.22;100.00;100309.06;5009726;28;20045;-56
2023/01/12 04:26:59;;;;;;;11.57;2.22;;;;;;;9.18;100.00;100295.16;5009074;28;20465;-61
2023/01/12 04:29:24;;;;;;;8.40;1.98;;;;;;;9.09;100.00;100293.75;5009958;28;20120;-60
2023/01/12 04:31:49;;;;;;;10.48;2.13;;;;;;;9.17;100.00;100308.38;5009980;28;20033;-61
2023/01/12 04:34:15;;;;;;;12.55;2.17;;;;;;;9.09;100.00;100317.41;4991658;28;20029;-60
2023/01/12 04:36:41;;;;;;;10.43;2.63;;;;;;;9.18;100.00;100303.06;5009589;28;20041;-61
2023/01/12 04:39:07;;;;;;;7.15;1.88;;;;;;;9.16;100.00;100318.03;5023360;28;20029;-56
2023/01/12 04:41:32;;;;;;;11.23;2.05;;;;;;;9.10;100.00;100279.69;5028158;28;20395;-59
2023/01/12 04:43:57;;;;;;;8.90;1.75;;;;;;;9.05;100.00;100297.41;5028534;28;20041;-63
2023/01/12 04:46:23;;;;;;;7.20;1.80;;;;;;;9.06;100.00;100291.22;5028901;28;20041;-60
2023/01/12 04:48:48;;;;;;;12.63;2.05;;;;;;;9.17;100.00;100301.34;5029571;28;20057;-58
2023/01/12 04:51:13;;;;;;;13.63;1.83;;;;;;;9.13;100.00;100307.66;5029034;28;20030;-61
2023/01/12 04:53:39;;;;;;;4.88;1.85;;;;;;;9.19;100.00;100299.53;5029249;28;20034;-61
2023/01/12 04:56:05;;;;;;;6.53;1.48;;;;;;;9.12;100.00;100298.03;5028195;28;20029;-62
2023/01/12 04:58:31;;;;;;;7.22;1.63;;;;;;;9.22;100.00;100299.41;5027625;28;20046;-62
2023/01/12 05:00:56;;;;;;;10.15;1.88;;;;;;;9.28;100.00;100290.44;5021764;28;20021;-62
2023/01/12 05:03:22;;;;;;;4.82;1.73;;;;;;;9.22;100.00;100288.03;5026761;28;20140;-58
2023/01/12 05:05:47;;;;;;;8.48;1.88;;;;;;;9.22;100.00;100277.53;5027303;28;20069;-62
2023/01/12 05:10:59;;;;;;;7.53;2.13;;;;;;;9.29;100.00;100278.13;5027043;28;20072;-59
2023/01/12 05:13:27;;;;;;;4.30;1.42;;;;;;;9.38;100.00;100297.97;5029075;28;20022;-60
2023/01/12 05:15:52;;;;;;;9.20;2.53;;;;;;;9.40;100.00;100285.63;5010553;28;20683;-59
2023/01/12 05:18:17;;;;;;;2.58;1.30;;;;;;;9.40;100.00;100296.16;5027339;28;20296;-61
2023/01/12 05:20:43;;;;;;;6.57;1.58;;;;;;;9.43;100.00;100309.19;5028696;28;20488;-62
2023/01/12 05:23:08;;;;;;;5.28;1.75;;;;;;;9.49;100.00;100280.03;5018597;28;20041;-59
2023/01/12 05:25:34;;;;;;;4.05;1.40;;;;;;;9.48;100.00;100291.44;5022926;28;20408;-60
2023/01/12 05:27:59;;;;;;;4.13;1.35;;;;;;;9.45;100.00;100281.91;5027647;28;20057;-61
2023/01/12 05:30:25;;;;;;;2.78;1.00;;;;;;;9.45;100.00;100278.44;5023656;28;20361;-61
2023/01/12 05:32:51;;;;;;;3.17;1.10;;;;;;;9.51;100.00;100307.09;5026401;28;20544;-60
2023/01/12 05:35:16;;;;;;;2.25;0.95;;;;;;;9.60;100.00;100312.03;5027197;28;20117;-62
2023/01/12 05:37:42;;;;;;;2.85;0.88;;;;;;;9.70;100.00;100324.84;5026417;28;20116;-63
2023/01/12 05:40:08;;;;;;;3.63;1.20;;;;;;;9.78;100.00;100312.22;5026306;28;20092;-62
2023/01/12 05:45:17;;;;;;;7.57;1.60;;;;;;;9.90;100.00;100323.22;5026862;28;20071;-62
2023/01/12 05:47:43;;;;;;;8.75;2.13;;;;;;;9.93;100.00;100302.88;5027817;28;20484;-62
2023/01/12 05:50:09;;;;;;;2.70;0.90;;;;;;;10.05;100.00;100319.94;5027738;28;20071;-64
2023/01/12 05:52:34;;;;;;;9.73;1.20;;;;;;;10.03;100.00;100298.13;5025935;28;20029;-62
2023/01/12 05:54:59;;;;;;;7.13;1.50;;;;;;;10.02;100.00;100308.69;5025631;28;20056;-60
2023/01/12 05:57:25;;;;;;;5.80;1.23;;;;;;;10.01;100.00;100284.16;5026799;28;20025;-60
2023/01/12 05:59:50;;;;;;;8.30;1.52;;;;;;;10.07;100.00;100310.22;5008585;28;20116;-61
2023/01/12 06:02:16;;;;;;;7.90;1.98;;;;;;;10.11;100.00;100287.25;5026059;28;20053;-62
2023/01/12 06:04:44;;;;;;;10.45;1.83;;;;;;;10.19;100.00;100279.03;5025040;28;20088;-61
2023/01/12 06:07:11;;;;;;;10.02;1.88;;;;;;;10.28;100.00;100323.44;5008373;28;20056;-60
2023/01/12 06:09:37;;;;;;;10.00;2.30;;;;;;;10.32;100.00;100296.03;5027019;28;20029;-61
2023/01/12 06:14:46;;;;;;;10.93;2.00;;;;;;;10.43;100.00;100276.31;5027867;28;20148;-60
2023/01/12 06:17:12;;;;;;;13.38;2.67;;;;;;;10.53;100.00;100309.25;5029045;28;20033;-61
2023/01/12 06:19:37;;;;;;;20.67;3.30;;;;;;;10.51;100.00;100334.84;5028488;28;20044;-60
2023/01/12 06:22:03;;;;;;;22.70;4.03;;;;;;;10.61;100.00;100304.53;5027883;28;20112;-60
2023/01/12 06:24:28;;;;;;;20.02;3.03;;;;;;;10.59;100.00;100319.53;5009971;28;20065;-60
2023/01/12 06:26:54;;;;;;;23.45;3.33;;;;;;;10.66;100.00;100304.34;5027342;28;20026;-60
2023/01/12 06:29:20;;;;;;;22.15;3.90;;;;;;;10.60;100.00;100294.91;5010168;28;20085;-60
2023/01/12 06:31:46;;;;;;;23.60;3.33;;;;;;;10.71;100.00;100304.13;5029298;28;20040;-61
2023/01/12 06:34:11;;;;;;;22.02;4.55;;;;;;;10.68;100.00;100318.28;5031961;28;20049;-61
2023/01/12 06:36:37;;;;;;;23.15;3.53;;;;;;;10.77;100.00;100322.31;5032767;28;20025;-58
2023/01/12 06:39:03;;;;;;;27.95;4.28;;;;;;;10.79;100.00;100322.25;5014487;28;20086;-62
2023/01/12 06:44:12;;;;;;;27.00;4.45;;;;;;;10.78;100.00;100324.03;5031229;28;20534;-58
2023/01/12 06:46:37;;;;;;;29.48;4.95;;;;;;;10.82;100.00;100330.88;5031308;28;20025;-62
2023/01/12 06:49:03;;;;;;;30.27;4.03;;;;;;;10.95;100.00;100327.69;5031381;28;20489;-60
2023/01/12 06:51:28;;;;;;;20.60;4.03;;;;;;;10.86;100.00;100339.50;5031908;28;20044;-58
2023/01/12 06:53:54;;;;;;;25.25;4.90;;;;;;;10.91;100.00;100326.13;5028317;28;20029;-60
2023/01/12 06:56:19;;;;;;;29.55;4.72;;;;;;;10.90;100.00;100359.56;5011713;28;20042;-61
2023/01/12 06:58:45;;;;;;;34.03;6.28;;;;;;;10.98;100.00;100314.38;5010893;28;20032;-61
2023/01/12 07:01:12;;;;;;;30.42;5.22;;;;;;;11.06;100.00;100312.28;4993353;28;20057;-56
2023/01/12 07:03:37;;;;;;;34.38;4.82;;;;;;;11.03;100.00;100322.97;5011362;28;20061;-63
2023/01/12 07:06:03;;;;;;;37.28;4.80;;;;;;;10.99;100.00;100353.88;5009125;28;20026;-57
2023/01/12 07:08:28;;;;;;;35.03;4.93;;;;;;;11.07;100.00;100345.63;4990806;28;20295;-62
2023/01/12 07:10:53;;;;;;;30.17;4.93;;;;;;;11.20;100.00;100332.75;5007310;28;20081;-60
2023/01/12 07:13:19;;;;;;;27.10;4.88;;;;;;;11.16;100.00;100343.50;5008658;28;20246;-60
2023/01/12 07:15:44;;;;;;;32.17;3.97;;;;;;;11.10;100.00;100329.69;5014808;28;20065;-62
2023/01/12 07:18:10;;;;;;;39.00;6.25;;;;;;;11.18;100.00;100339.03;5027739;28;20021;-58
2023/01/12 07:20:35;;;;;;;34.28;4.57;;;;;;;11.15;100.00;100337.38;5027828;28;20464;-60
2023/01/12 07:23:00;;;;;;;32.83;4.32;;;;;;;11.05;100.00;100326.38;5029205;28;20361;-60
2023/01/12 07:25:26;;;;;;;37.22;5.55;;;;;;;11.01;100.00;100356.44;5028970;28;20032;-60
2023/01/12 07:27:54;;;;;;;28.55;4.72;;;;;;;11.08;100.00;100341.22;5029138;28;20030;-59
2023/01/12 07:30:20;;;;;;;34.08;4.45;;;;;;;11.09;100.00;100337.66;5028706;28;20021;-65
2023/01/12 07:32:49;;;;;;;38.35;5.10;;;;;;;11.08;100.00;100343.84;5029622;28;20399;-61
2023/01/12 07:35:15;;;;;;;31.20;4.30;;;;;;;11.04;100.00;100382.66;5028237;28;20080;-61
2023/01/12 07:37:54;;;;;;;38.08;7.05;;;;;;;11.17;100.00;100361.88;5029138;28;20041;-61
2023/01/12 07:40:19;;;;;;;32.50;5.45;;;;;;;11.19;100.00;100356.53;5027768;28;20526;-61
2023/01/12 07:42:45;;;;;;;28.02;4.47;;;;;;;11.11;100.00;100363.00;5029227;28;20021;-62
2023/01/12 07:45:10;;;;;;;41.22;5.07;;;;;;;11.16;100.00;100368.09;5027827;28;20029;-61
2023/01/12 07:47:36;;;;;;;40.80;4.32;;;;;;;11.12;100.00;100364.75;5011455;28;20026;-62
2023/01/12 07:50:02;;;;;;;36.45;5.40;;;;;;;11.18;100.00;100365.38;5029032;28;20379;-57
2023/01/12 07:52:28;;;;;;;37.40;4.88;;;;;;;11.11;100.00;100386.75;5029042;28;20030;-62
2023/01/12 07:54:53;;;;;;;38.45;5.00;;;;;;;11.23;100.00;100371.34;5028707;28;20048;-58
2023/01/12 07:57:19;;;;;;;28.38;4.72;;;;;;;11.19;100.00;100365.31;5024850;28;20022;-61
2023/01/12 07:59:44;;;;;;;28.10;5.03;;;;;;;11.30;100.00;100371.91;5009200;28;20050;-65
2023/01/12 08:02:15;;;;;;;31.35;4.35;;;;;;;11.26;100.00;100379.13;5007968;28;20541;-60
2023/01/12 08:04:42;;;;;;;34.15;5.30;;;;;;;11.30;100.00;100385.97;5007521;28;20103;-63
2023/01/12 08:07:08;;;;;;;28.45;4.95;;;;;;;11.22;100.00;100414.44;5007402;28;20036;-62
2023/01/12 08:09:33;;;;;;;32.13;5.18;;;;;;;11.27;100.00;100375.53;5028215;28;20045;-61
2023/01/12 08:11:58;;;;;;;39.60;5.40;;;;;;;11.34;100.00;100440.28;5027474;28;20032;-62
2023/01/12 08:14:32;;;;;;;36.63;5.53;;;;;;;11.44;100.00;100416.16;5028645;28;20029;-63
2023/01/12 08:17:00;;;;;;;42.25;5.97;;;;;;;11.36;100.00;100393.59;5011020;28;20017;-63
2023/01/12 08:19:30;;;;;;;33.58;5.22;;;;;;;11.39;100.00;100392.59;5010576;28;20029;-65
2023/01/12 08:21:58;;;;;;;35.35;4.88;;;;;;;11.36;100.00;100413.84;5028347;28;20113;-61
2023/01/12 08:24:29;;;;;;;39.92;6.18;;;;;;;11.44;100.00;100406.44;5009421;28;20458;-62
2023/01/12 08:26:56;;;;;;;37.35;5.80;;;;;;;11.42;100.00;100423.25;5026658;28;20026;-63
2023/01/12 08:29:39;;;;;;;34.42;5.57;;;;;;;11.45;100.00;100402.88;5028644;28;20045;-61
2023/01/12 08:32:05;;;;;;;34.15;5.25;;;;;;;11.38;100.00;100404.94;5028503;28;20029;-62
2023/01/12 08:34:32;;;;;;;27.02;4.40;;;;;;;11.42;100.00;100425.91;5010666;28;20018;-63
2023/01/12 08:36:59;;;;;;;35.15;5.18;;;;;;;11.49;100.00;100428.19;5010610;28;20021;-62
2023/01/12 08:39:25;;;;;;;37.38;5.30;;;;;;;11.52;100.00;100418.41;5028313;28;20384;-63
2023/01/12 08:41:50;;;;;;;33.35;5.18;;;;;;;11.55;100.00;100426.19;5025857;28;20037;-59
2023/01/12 08:44:16;;;;;;;34.03;4.47;;;;;;;11.53;100.00;100420.97;5028986;28;20129;-61
2023/01/12 08:46:47;;;;;;;37.42;5.32;;;;;;;11.52;100.00;100423.69;5027410;28;20057;-61
2023/01/12 08:49:13;;;;;;;29.52;4.88;;;;;;;11.44;100.00;100411.69;5025343;28;20057;-58
2023/01/12 08:51:39;;;;;;;36.13;4.47;;;;;;;11.47;100.00;100439.75;5028880;28;20376;-60
2023/01/12 08:54:05;;;;;;;40.97;5.75;;;;;;;11.57;100.00;100427.88;5028218;28;20028;-63
2023/01/12 08:56:31;;;;;;;40.78;5.72;;;;;;;11.57;100.00;100414.66;5027615;28;20021;-62
2023/01/12 08:58:57;;;;;;;34.47;5.55;;;;;;;11.65;100.00;100468.88;5027022;28;20075;-58
2023/01/12 09:01:22;;;;;;;38.00;5.78;;;;;;;11.66;100.00;100446.84;5027078;28;20186;-61
2023/01/12 09:03:48;;;;;;;49.13;6.90;;;;;;;11.68;100.00;100435.28;5027934;28;20044;-64
2023/01/12 09:06:22;;;;;;;38.28;6.13;;;;;;;11.67;100.00;100407.19;5026090;28;20492;-62
2023/01/12 09:08:52;;;;;;;37.63;5.80;;;;;;;11.67;100.00;100438.84;5009580;28;20488;-57
2023/01/12 09:11:18;;;;;;;39.92;5.30;;;;;;;11.73;100.00;100435.06;5027675;28;20436;-65
2023/01/12 09:13:44;;;;;;;43.53;5.95;;;;;;;11.86;100.00;100443.31;5027520;28;20029;-64
2023/01/12 09:16:12;;;;;;;35.67;5.07;;;;;;;11.81;100.00;100440.88;5027176;28;20163;-64
2023/01/12 09:18:37;;;;;;;36.08;5.35;;;;;;;11.82;100.00;100445.22;5027329;28;20091;-62
2023/01/12 09:21:04;;;;;;;35.60;5.85;;;;;;;11.78;100.00;100459.50;5027444;28;20026;-62
2023/01/12 09:23:30;;;;;;;36.92;5.90;;;;;;;11.83;100.00;100481.25;5026418;28;20021;-62
2023/01/12 09:25:55;;;;;;;44.70;5.95;;;;;;;11.79;100.00;100463.84;5008343;28;20037;-61
2023/01/12 09:28:21;;;;;;;35.15;5.55;;;;;;;11.82;100.00;100455.78;5025399;28;20024;-63
2023/01/12 09:30:46;;;;;;;40.50;4.97;;;;;;;11.83;100.00;100481.25;5027183;28;20476;-64
2023/01/12 09:33:11;;;;;;;42.45;6.63;;;;;;;11.98;100.00;100495.53;5026650;28;20092;-61
2023/01/12 09:35:37;;;;;;;36.25;7.22;;;;;;;11.90;100.00;100502.09;5027296;28;20045;-59
2023/01/12 09:38:02;;;;;;;32.90;5.82;;;;;;;11.80;100.00;100507.78;5025735;28;20071;-61
2023/01/12 09:40:28;;;;;;;37.03;5.47;;;;;;;11.86;100.00;100478.47;5025686;28;20029;-64
2023/01/12 09:48:22;;;;;;;34.80;5.55;;;;;;;11.88;100.00;100494.25;5025040;28;20044;-58
2023/01/12 09:50:50;;;;;;;29.95;5.00;;;;;;;11.90;100.00;100494.16;5022497;28;20033;-62
2023/01/12 09:53:19;;;;;;;37.58;5.35;;;;;;;11.94;100.00;100525.66;5025622;28;20033;-63
2023/01/12 09:55:44;;;;;;;31.73;5.68;;;;;;;11.79;100.00;100511.34;5008235;28;20420;-63
2023/01/12 09:58:26;;;;;;;37.63;6.13;;;;;;;11.75;100.00;100504.50;5009277;28;20120;-58
2023/01/12 10:00:56;;;;;;;33.67;5.65;;;;;;;11.74;100.00;100514.19;5027420;28;20017;-64
2023/01/12 10:03:29;;;;;;;37.33;5.50;;;;;;;11.60;100.00;100514.81;5009697;28;20080;-62
2023/01/12 10:05:57;;;;;;;41.70;5.13;;;;;;;11.56;100.00;100525.56;5006252;28;20029;-63
2023/01/12 10:08:41;;;;;;;32.92;5.80;;;;;;;11.56;100.00;100499.19;5027396;28;20033;-64
2023/01/12 10:11:23;;;;;;;44.83;5.65;;;;;;;11.56;100.00;100512.38;5006111;28;20077;-56
2023/01/12 10:14:00;;;;;;;33.17;5.13;;;;;;;11.66;100.00;100520.72;5010076;28;20040;-61
2023/01/12 10:16:35;;;;;;;26.40;4.72;;;;;;;11.67;100.00;100535.63;5030712;28;20430;-61
2023/01/12 10:19:06;;;;;;;38.17;5.40;;;;;;;11.57;100.00;100530.78;5025186;28;20025;-62
2023/01/12 10:21:31;;;;;;;34.22;4.53;;;;;;;11.60;100.00;100524.50;5030509;28;20025;-63
2023/01/12 10:23:57;;;;;;;38.15;5.82;;;;;;;11.54;100.00;100540.59;5030212;28;20113;-65
2023/01/12 10:26:24;;;;;;;33.72;5.55;;;;;;;11.58;100.00;100529.84;5024577;28;20033;-56
2023/01/12 10:28:53;;;;;;;36.20;5.15;;;;;;;11.57;100.00;100533.41;5024803;28;20595;-62
2023/01/12 10:31:20;;;;;;;43.92;5.78;;;;;;;11.53;100.00;100531.81;5008954;28;20117;-62
2023/01/12 10:34:09;;;;;;;29.73;4.65;;;;;;;11.59;100.00;100531.53;5010241;28;20017;-61
2023/01/12 10:36:47;;;;;;;35.47;4.75;;;;;;;11.68;100.00;100550.56;5028349;28;20112;-63
2023/01/12 10:39:41;;;;;;;29.92;4.65;;;;;;;11.69;100.00;100547.00;5028019;28;20110;-64
2023/01/12 10:45:19;;;;;;;35.95;4.80;;;;;;;11.81;100.00;100529.75;5024559;28;20036;-62
2023/01/12 10:47:45;;;;;;;33.22;4.18;;;;;;;11.77;100.00;100536.94;5027281;28;20025;-61
2023/01/12 10:50:21;;;;;;;28.27;4.45;;;;;;;11.85;100.00;100518.13;5029735;28;20021;-58
2023/01/12 10:52:49;;;;;;;28.63;4.00;;;;;;;11.92;100.00;100518.72;5012422;28;20029;-64
2023/01/12 10:55:22;;;;;;;27.63;4.10;;;;;;;11.83;100.00;100527.91;5028724;28;20022;-59
2023/01/12 10:57:48;;;;;;;31.27;5.05;;;;;;;11.88;100.00;100518.00;5011938;28;20029;-62
2023/01/12 11:00:23;;;;;;;30.02;6.10;;;;;;;12.03;100.00;100534.06;4992292;28;20491;-62
2023/01/12 11:02:49;;;;;;;33.70;4.97;;;;;;;11.98;100.00;100521.94;5009876;28;20040;-62
2023/01/12 11:05:37;;;;;;;26.90;4.40;;;;;;;12.15;100.00;100522.13;5014950;28;20042;-62
2023/01/12 11:08:23;;;;;;;24.97;4.60;;;;;;;11.97;100.00;100498.25;5027069;28;20017;-58
2023/01/12 11:10:48;;;;;;;28.48;5.05;;;;;;;11.95;100.00;100526.53;5027216;28;20040;-60
2023/01/12 11:13:36;;;;;;;31.10;4.40;;;;;;;11.94;100.00;100514.22;5029254;28;20403;-64
2023/01/12 11:16:09;;;;;;;30.48;5.50;;;;;;;12.04;100.00;100544.56;5029468;28;20426;-61
2023/01/12 11:18:46;;;;;;;37.17;5.32;;;;;;;11.98;100.00;100529.88;5028564;28;20022;-62
2023/01/12 11:21:14;;;;;;;34.10;5.82;;;;;;;12.03;100.00;100515.59;5009451;28;20025;-61
2023/01/12 11:24:02;;;;;;;34.00;4.55;;;;;;;12.01;100.00;100507.72;5008050;28;20018;-61
2023/01/12 11:26:31;;;;;;;27.17;4.75;;;;;;;12.08;100.00;100511.88;5006722;28;20388;-63
2023/01/12 11:29:02;;;;;;;34.83;5.25;;;;;;;12.05;100.00;100526.94;5009427;28;20053;-62
2023/01/12 11:31:30;;;;;;;31.38;4.88;;;;;;;12.05;100.00;100511.09;4991843;28;20451;-63
2023/01/12 11:34:02;;;;;;;27.25;4.28;;;;;;;12.15;100.00;100501.00;4992165;28;20026;-62
2023/01/12 11:36:34;;;;;;;34.55;5.22;;;;;;;12.04;100.00;100504.97;4992618;28;20041;-60
2023/01/12 11:39:06;;;;;;;35.35;5.82;;;;;;;12.05;100.00;100517.25;4975459;28;20022;-63
2023/01/12 11:43:47;;;;;;;27.35;4.97;;;;;;;12.08;100.00;100501.31;5008340;28;20113;-63
2023/01/12 11:44:47;;;;;;;26.38;4.68;;;;;;;12.02;100.00;100498.91;5019818;28;20105;-62
2023/01/12 11:47:13;;;;;;;33.03;5.55;;;;;;;12.07;100.00;100519.84;5026959;28;20415;-61
2023/01/12 11:50:02;;;;;;;30.25;4.45;;;;;;;12.07;100.00;100494.28;5029258;28;20028;-63
2023/01/12 11:52:28;;;;;;;27.13;4.55;;;;;;;12.09;100.00;100479.25;5008880;28;20028;-64
2023/01/12 11:54:54;;;;;;;25.98;4.75;;;;;;;12.07;100.00;100483.72;5027642;28;20029;-61
2023/01/12 11:57:40;;;;;;;28.27;5.88;;;;;;;12.09;100.00;100481.00;5011747;28;20025;-62
2023/01/12 12:00:23;;;;;;;34.05;5.00;;;;;;;12.01;100.00;100497.16;5010497;28;20040;-62
2023/01/12 12:03:10;;;;;;;31.83;5.05;;;;;;;12.03;100.00;100497.97;5026587;28;20107;-63